Airfield :
LOGIN :

Register | Disclaimer

   EN    FR    IT 

 










Legend :    VFR   Marginal VFR   IFR   Intensive IFR   Very Intensive IFR
Visi :
Ceiling :
>= 8 km
>= 3000ft
5 to 8 km
1000 to 3000 ft
1500m to 5 km
500 to 1000 ft
800 to 1500m
200 to 500 ft
< 800m
< 200 ft
Symbols :   Thunderstorms  Fog  Heavy snow  Heavy precipitations  Wind > 20 kt
SIGMETs :     Misc.  Thunderstorms  Icing  Turbulence  Mountain Waves  Volcanic Ashes







- Airport Elevation : 200 ft


EBBL - Klein Brogel AB

CURRENT METAR :
  • 191825Z AUTO 22003KT 9999 SCT110/// BKN130/// 18/17 Q1008 BLU

EXPIRED METARs :
  • 191755Z AUTO 25006KT 9999 -RA OVC078/// 17/17 Q1008 BLU
  • 191748Z AUTO 21006KT 9999 -RA OVC076/// 17/17 Q1007 BLU
  • 191735Z AUTO 26004KT 6000 -RA OVC075/// 17/17 Q1007 WHT
  • 191725Z AUTO 25011KT 9999 RA OVC080/// 17/17 Q1008 BLU
  • 191655Z AUTO 22010G21KT 9999 RA FEW050/// BKN084/// BKN100/// 18/17 Q1009 BLU
  • 191625Z AUTO VRB02KT 9999 FEW067/// BKN100/// 18/18 Q1008 BLU
  • 191613Z AUTO VRB02KT 9999 SCT070/// OVC100/// 18/17 Q1007 BLU
  • 191555Z AUTO 18005KT 6000 RA FEW055/// OVC079/// 18/16 Q1007 WHT
  • 191548Z AUTO 20008KT 9999 -RA FEW012/// SCT055/// BKN093/// 17/16 Q1008 BLU
  • 191525Z AUTO 29009KT 9999 -RA SCT013/// BKN062/// BKN081/// 16/16 Q1007 GRN

TAF AMD TAF EBBL
Valid from the 19 at 13:00 until the 19 at 22:00 UTC


191300Z 1913/1922 21010KT 9999 SCT100
TEMPO 1915/1922 5000 SHRA SCT040TCU BKN090
TEMPO 1915/1922 23012G25KT 4000 -TSRA SCT008 BKN020CB
PROB30 25015G30KT 3000 TSRAGS SCT006 BKN015CB
No reported NOTAMs for that airfield.
1 SIGMET reported for the Brussels FIR (EBBU) :
 
Frequent thunderstorms
EBBU SIGMET 04 VALID 191600/191800 EBBR
EBBU BRUSSELS FIR FRQ TS OBS WI N5039 E00317 - N5121 E00414 - N5122 E00506 - N5056 E00545 - N5008 E00445 - N5039 E00317 TOP FL370 MOV NE30KT NC=



MET'MAP, your aeronautical weather chart ! - Copyright ORBIFLY December 2007 - Disclaimer

ORBIFLY MET'MAP TEAM :

Programming & Development : Alexandra Zaïnal
Concept & Development : Baudouin d'Aumeries
Co-Development & Prog : Marc-Olivier Méhu
Technical & hardware support : Manuel Goepfert

Contact : metmap@orbifly.com




SOURCES & CREDITS :

   NOAA